Cannelton Heights, Indiana
Current Conditions -  °F | °C
As of 7:15 AM on Monday 22 Dec 2014 (Local Time) from KHNB Reporting Station
Overcast Overcast  
Wind Chill: 32°   Ceiling: 1200
Heat Index: 39°   Visibility: 10mi
Dew Point: 34°   Wind: 12mph
Humidity: 81%   Direction: 130°SE
Pressure: 29.93"   Gusts: NA
Location:  38.0928°N, 86.4878°W
Report Text: KHNB 221315Z AUTO 13010KT 10SM OVC012 04/01 A2993 RMK AO1
Loading
Personal Weather Stations






























Interactive Weather Map New forecast layout! Learn more

10-Day Weather Forecast

Advertisements
Track Severe Weather on mobile